createdAt,value
2022-10-23T00:01:26.389Z,4.30
2022-10-23T00:03:53.939Z,3.88
2022-10-23T00:06:20.512Z,4.30
2022-10-23T00:08:47.882Z,4.35
2022-10-23T00:11:15.367Z,3.55
2022-10-23T00:13:42.116Z,4.05
2022-10-23T00:16:08.872Z,2.97
2022-10-23T00:18:35.597Z,4.97
2022-10-23T00:21:02.463Z,2.05
2022-10-23T00:23:29.217Z,4.25
2022-10-23T00:25:55.643Z,3.20
2022-10-23T00:28:22.041Z,2.72
2022-10-23T00:30:48.446Z,4.07
2022-10-23T00:33:14.803Z,4.00
2022-10-23T00:35:41.503Z,3.83
2022-10-23T00:38:08.151Z,4.07
2022-10-23T00:40:35.319Z,3.72
2022-10-23T00:43:01.827Z,4.35
2022-10-23T00:45:33.212Z,3.88
2022-10-23T00:48:02.423Z,4.68
2022-10-23T00:50:32.859Z,3.03
2022-10-23T00:53:00.500Z,4.43
2022-10-23T00:55:27.441Z,4.10
2022-10-23T00:57:53.833Z,3.33
2022-10-23T01:00:20.163Z,4.68
2022-10-23T01:02:46.791Z,4.55
2022-10-23T01:05:13.245Z,3.80
2022-10-23T01:07:59.830Z,4.03
2022-10-23T01:10:34.462Z,2.90
2022-10-23T01:13:16.806Z,3.30
2022-10-23T01:15:53.351Z,2.30
2022-10-23T01:18:26.369Z,4.63
2022-10-23T01:20:59.869Z,4.10
2022-10-23T01:23:35.167Z,3.60
2022-10-23T01:26:04.495Z,3.00
2022-10-23T01:28:41.275Z,3.40
2022-10-23T01:31:11.556Z,4.38
2022-10-23T01:33:42.881Z,4.15
2022-10-23T01:36:12.242Z,3.67
2022-10-23T01:38:44.056Z,4.28
2022-10-23T01:41:18.028Z,4.75
2022-10-23T01:43:47.128Z,4.65
2022-10-23T01:46:16.044Z,4.65
2022-10-23T01:48:45.972Z,4.50
2022-10-23T01:51:13.299Z,4.50
2022-10-23T01:53:41.668Z,4.93
2022-10-23T01:56:10.533Z,4.13
2022-10-23T01:58:37.437Z,5.03
2022-10-23T02:01:05.263Z,4.38
2022-10-23T02:03:33.209Z,3.60
2022-10-23T02:05:59.673Z,4.40
2022-10-23T02:08:25.993Z,3.47
2022-10-23T02:11:00.584Z,4.47
2022-10-23T02:13:33.284Z,3.22
2022-10-23T02:16:05.909Z,4.28
2022-10-23T02:19:04.906Z,1.65
2022-10-23T02:21:34.885Z,4.45
2022-10-23T02:24:03.468Z,3.88
2022-10-23T02:26:34.218Z,3.22
2022-10-23T02:31:36.629Z,3.88
2022-10-23T02:34:03.375Z,2.85
2022-10-23T02:36:29.690Z,2.50
2022-10-23T02:38:56.043Z,3.85
2022-10-23T02:41:29.126Z,3.38
2022-10-23T02:44:14.354Z,5.28
2022-10-23T02:46:49.656Z,3.65
2022-10-23T02:49:34.204Z,3.72
2022-10-23T02:52:05.203Z,3.65
2022-10-23T02:54:34.284Z,4.47
2022-10-23T02:57:08.434Z,5.47
2022-10-23T02:59:41.124Z,3.13
2022-10-23T03:02:23.066Z,4.40
2022-10-23T03:04:50.205Z,3.47
2022-10-23T03:07:18.719Z,3.65
2022-10-23T03:09:45.033Z,4.63
2022-10-23T03:12:11.431Z,3.90
2022-10-23T03:14:37.785Z,3.45
2022-10-23T03:17:04.710Z,4.13
2022-10-23T03:19:31.045Z,5.10
2022-10-23T03:21:57.448Z,4.88
2022-10-23T03:24:23.742Z,3.33
2022-10-23T03:26:50.084Z,3.40
2022-10-23T03:29:16.448Z,4.18
2022-10-23T03:31:42.880Z,4.13
2022-10-23T03:34:11.209Z,3.85
2022-10-23T03:36:37.938Z,3.25
2022-10-23T03:39:04.572Z,3.58
2022-10-23T03:41:31.384Z,3.70
2022-10-23T03:43:57.858Z,4.00
2022-10-23T03:46:24.361Z,3.97
2022-10-23T03:48:50.734Z,3.33
2022-10-23T03:51:17.040Z,3.58
2022-10-23T03:53:43.382Z,3.35
2022-10-23T03:56:09.751Z,3.50
2022-10-23T03:58:36.254Z,3.67
2022-10-23T04:01:02.693Z,4.47
2022-10-23T04:03:29.036Z,3.47
2022-10-23T04:05:55.371Z,2.97
2022-10-23T04:08:21.726Z,3.63
2022-10-23T04:10:48.077Z,4.03
2022-10-23T04:13:14.486Z,3.60
2022-10-23T04:15:40.794Z,3.42
2022-10-23T04:18:07.162Z,3.17
2022-10-23T04:20:33.481Z,3.50
2022-10-23T04:22:59.875Z,4.05
2022-10-23T04:25:26.185Z,2.67
2022-10-23T04:27:52.483Z,3.00
2022-10-23T04:30:18.862Z,3.20
2022-10-23T04:32:45.172Z,3.50
2022-10-23T04:35:11.484Z,3.85
2022-10-23T04:37:37.857Z,3.17
2022-10-23T04:40:04.328Z,2.85
2022-10-23T04:42:30.656Z,3.28
2022-10-23T04:44:57.062Z,2.78
2022-10-23T04:47:23.354Z,3.03
2022-10-23T04:49:49.662Z,3.40
2022-10-23T04:52:16.133Z,3.30
2022-10-23T04:54:42.434Z,3.38
2022-10-23T04:57:08.780Z,3.05
2022-10-23T04:59:35.169Z,3.05
2022-10-23T05:02:01.581Z,4.15
2022-10-23T05:04:27.908Z,3.08
2022-10-23T05:06:54.378Z,3.38
2022-10-23T05:09:22.185Z,3.03
2022-10-23T05:11:48.819Z,3.33
2022-10-23T05:14:18.110Z,2.95
2022-10-23T05:16:48.235Z,2.65
2022-10-23T05:19:21.948Z,2.70
2022-10-23T05:21:55.965Z,3.80
2022-10-23T05:24:26.184Z,3.58
2022-10-23T05:26:53.006Z,3.20
2022-10-23T05:29:19.946Z,3.80
2022-10-23T05:31:46.910Z,3.17
2022-10-23T05:34:15.143Z,3.10
2022-10-23T05:36:41.552Z,2.03
2022-10-23T05:39:07.911Z,2.88
2022-10-23T05:41:34.205Z,2.80
2022-10-23T05:44:00.509Z,2.17
2022-10-23T05:46:27.930Z,2.70
2022-10-23T05:48:54.389Z,2.15
2022-10-23T05:51:22.957Z,2.90
2022-10-23T05:53:49.801Z,2.78
2022-10-23T05:56:16.253Z,3.38
2022-10-23T05:58:42.698Z,2.97
2022-10-23T06:01:10.778Z,2.60
2022-10-23T06:03:37.835Z,2.63
2022-10-23T06:06:04.662Z,2.38
2022-10-23T06:08:31.293Z,3.20
2022-10-23T06:10:57.820Z,3.53
2022-10-23T06:13:24.161Z,2.35
2022-10-23T06:15:50.515Z,3.22
2022-10-23T06:18:16.905Z,3.13
2022-10-23T06:20:43.202Z,1.88
2022-10-23T06:23:09.514Z,3.20
2022-10-23T06:25:35.849Z,3.15
2022-10-23T06:28:02.163Z,2.95
2022-10-23T06:30:28.714Z,3.45
2022-10-23T06:32:55.282Z,2.60
2022-10-23T06:35:21.577Z,2.67
2022-10-23T06:37:47.865Z,2.17
2022-10-23T06:40:14.189Z,2.22
2022-10-23T06:42:40.787Z,2.85
2022-10-23T06:45:07.522Z,3.00
2022-10-23T06:47:33.953Z,3.33
2022-10-23T06:50:00.352Z,3.15
2022-10-23T06:52:45.830Z,2.90
2022-10-23T06:55:13.023Z,2.58
2022-10-23T06:57:39.323Z,2.83
2022-10-23T07:00:05.999Z,3.20
2022-10-23T07:02:32.279Z,3.22
2022-10-23T07:04:58.656Z,2.53
2022-10-23T07:07:24.968Z,3.20
2022-10-23T07:09:51.330Z,3.00
2022-10-23T07:12:17.694Z,3.50
2022-10-23T07:14:44.008Z,2.72
2022-10-23T07:17:10.396Z,2.75
2022-10-23T07:19:36.705Z,3.10
2022-10-23T07:22:03.043Z,3.70
2022-10-23T07:24:30.837Z,2.55
2022-10-23T07:26:58.279Z,3.20
2022-10-23T07:29:24.619Z,1.95
2022-10-23T07:31:50.929Z,2.78
2022-10-23T07:34:17.327Z,2.13
2022-10-23T07:36:43.687Z,3.00
2022-10-23T07:39:10.098Z,3.50
2022-10-23T07:41:36.600Z,2.83
2022-10-23T07:44:02.897Z,3.15
2022-10-23T07:46:29.272Z,2.50
2022-10-23T07:48:55.569Z,3.10
2022-10-23T07:51:21.903Z,2.17
2022-10-23T07:53:48.299Z,3.38
2022-10-23T07:56:23.136Z,2.30
2022-10-23T07:58:50.581Z,3.20
2022-10-23T08:01:19.661Z,2.97
2022-10-23T08:03:46.027Z,3.58
2022-10-23T08:06:12.442Z,3.47
2022-10-23T08:08:38.812Z,2.58
2022-10-23T08:11:05.343Z,4.03
2022-10-23T08:13:31.682Z,3.00
2022-10-23T08:15:58.661Z,3.05
2022-10-23T08:18:25.143Z,3.30
2022-10-23T08:20:52.485Z,3.22
2022-10-23T08:23:20.302Z,2.95
2022-10-23T08:25:46.802Z,3.53
2022-10-23T08:28:13.228Z,3.05
2022-10-23T08:30:39.603Z,2.70
2022-10-23T08:33:07.190Z,3.17
2022-10-23T08:35:39.733Z,3.33
2022-10-23T08:38:06.561Z,3.20
2022-10-23T08:40:33.008Z,3.38
2022-10-23T08:43:05.671Z,3.20
2022-10-23T08:45:44.846Z,3.45
2022-10-23T08:48:16.356Z,3.53
2022-10-23T08:50:45.768Z,3.53
2022-10-23T08:53:15.766Z,3.00
2022-10-23T08:55:43.407Z,4.35
2022-10-23T08:58:17.883Z,2.83
2022-10-23T09:00:44.971Z,3.40
2022-10-23T09:03:12.805Z,2.63
2022-10-23T09:05:54.662Z,2.97
2022-10-23T09:08:32.887Z,3.10
2022-10-23T09:11:13.901Z,3.08
2022-10-23T09:13:49.040Z,3.10
2022-10-23T09:16:33.973Z,2.60
2022-10-23T09:19:00.333Z,3.53
2022-10-23T09:21:28.304Z,2.80
2022-10-23T09:23:55.002Z,2.08
2022-10-23T09:26:21.380Z,2.72
2022-10-23T09:28:49.381Z,3.55
2022-10-23T09:31:16.157Z,2.25
2022-10-23T09:33:53.028Z,2.90
2022-10-23T09:36:20.311Z,3.72
2022-10-23T09:38:46.604Z,3.50
2022-10-23T09:41:31.668Z,2.72
2022-10-23T09:44:15.953Z,3.10
2022-10-23T09:46:43.757Z,2.95
2022-10-23T09:49:30.454Z,3.60
2022-10-23T09:52:04.324Z,3.63
2022-10-23T09:54:32.332Z,2.47
2022-10-23T09:57:02.126Z,3.13
2022-10-23T09:59:29.725Z,3.10
2022-10-23T10:02:00.284Z,2.70
2022-10-23T10:04:33.042Z,2.63
2022-10-23T10:07:01.868Z,3.03
2022-10-23T10:09:28.426Z,2.95
2022-10-23T10:12:18.088Z,2.78
2022-10-23T10:14:51.269Z,2.25
2022-10-23T10:17:20.406Z,2.83
2022-10-23T10:19:57.525Z,2.70
2022-10-23T10:22:42.354Z,3.50
2022-10-23T10:25:08.636Z,2.50
2022-10-23T10:27:44.788Z,3.67
2022-10-23T10:30:14.113Z,2.70
2022-10-23T10:32:45.425Z,1.55
2022-10-23T10:35:11.708Z,3.03
2022-10-23T10:37:46.110Z,1.85
2022-10-23T10:40:23.632Z,1.98
2022-10-23T10:42:56.006Z,2.15
2022-10-23T10:45:25.330Z,1.95
2022-10-23T10:47:51.792Z,2.53
2022-10-23T10:50:37.065Z,2.53
2022-10-23T10:53:17.929Z,1.60
2022-10-23T10:55:46.786Z,2.67
2022-10-23T10:58:48.908Z,3.25
2022-10-23T11:01:34.267Z,2.38
2022-10-23T11:04:19.512Z,2.80
2022-10-23T11:06:49.176Z,2.70
2022-10-23T11:09:23.744Z,3.00
2022-10-23T11:11:50.200Z,2.72
2022-10-23T11:14:17.837Z,2.22
2022-10-23T11:16:46.632Z,3.35
2022-10-23T11:19:15.933Z,2.70
2022-10-23T11:21:42.241Z,2.47
2022-10-23T11:24:11.233Z,2.90
2022-10-23T11:26:40.361Z,2.67
2022-10-23T11:29:08.577Z,2.85
2022-10-23T11:31:35.058Z,2.70
2022-10-23T11:34:07.468Z,2.45
2022-10-23T11:36:48.765Z,2.83
2022-10-23T11:39:24.100Z,2.60
2022-10-23T11:42:19.645Z,2.92
2022-10-23T11:44:46.043Z,2.50
2022-10-23T11:47:36.461Z,2.05
2022-10-23T11:50:08.471Z,2.58
2022-10-23T11:52:42.111Z,2.90
2022-10-23T11:55:18.767Z,2.70
2022-10-23T11:58:04.075Z,2.78
2022-10-23T12:00:32.031Z,2.00
2022-10-23T12:02:59.337Z,2.90
2022-10-23T12:05:37.748Z,2.78
2022-10-23T12:08:05.874Z,2.17
2022-10-23T12:10:36.617Z,2.58
2022-10-23T12:13:06.445Z,2.60
2022-10-23T12:15:34.834Z,2.55
2022-10-23T12:18:14.595Z,2.17
2022-10-23T12:21:01.222Z,1.48
2022-10-23T12:23:30.643Z,3.08
2022-10-23T12:26:20.655Z,2.63
2022-10-23T12:29:04.199Z,2.08
2022-10-23T12:31:33.584Z,2.00
2022-10-23T12:34:18.773Z,2.13
2022-10-23T12:36:54.410Z,2.20
2022-10-23T12:39:27.170Z,2.00
2022-10-23T12:41:53.788Z,1.80
2022-10-23T12:44:20.250Z,1.83
2022-10-23T12:46:48.192Z,2.63
2022-10-23T12:49:16.060Z,2.33
2022-10-23T12:51:42.531Z,1.77
2022-10-23T12:54:15.891Z,2.20
2022-10-23T12:56:44.171Z,2.10
2022-10-23T12:59:14.568Z,1.67
2022-10-23T13:01:43.291Z,2.13
2022-10-23T13:04:16.443Z,2.28
2022-10-23T13:06:43.424Z,1.75
2022-10-23T13:09:16.368Z,1.77
2022-10-23T13:11:42.968Z,1.92
2022-10-23T13:14:13.062Z,1.60
2022-10-23T13:16:39.536Z,1.58
2022-10-23T13:19:05.873Z,2.25
2022-10-23T13:21:32.719Z,2.40
2022-10-23T13:23:59.157Z,1.98
2022-10-23T13:26:30.358Z,2.00
2022-10-23T13:28:57.226Z,2.05
2022-10-23T13:31:25.361Z,2.42
2022-10-23T13:34:03.480Z,2.10
2022-10-23T13:36:31.345Z,1.65
2022-10-23T13:39:03.681Z,2.15
2022-10-23T13:41:35.212Z,1.88
2022-10-23T13:44:01.580Z,2.22
2022-10-23T13:46:27.985Z,1.70
2022-10-23T13:48:54.347Z,2.40
2022-10-23T13:51:30.391Z,1.83
2022-10-23T13:53:57.192Z,2.47
2022-10-23T13:56:24.339Z,2.13
2022-10-23T13:58:50.770Z,2.30
2022-10-23T14:01:21.940Z,2.47
2022-10-23T14:03:49.118Z,2.10
2022-10-23T14:06:15.508Z,1.80
2022-10-23T14:08:41.836Z,1.60
2022-10-23T14:11:09.438Z,2.15
2022-10-23T14:13:35.811Z,2.20
2022-10-23T14:16:02.096Z,2.25
2022-10-23T14:18:28.658Z,1.70
2022-10-23T14:20:54.993Z,1.92
2022-10-23T14:23:21.734Z,2.40
2022-10-23T14:25:48.065Z,1.80
2022-10-23T14:28:14.408Z,1.60
2022-10-23T14:30:40.776Z,2.05
2022-10-23T14:33:07.214Z,2.17
2022-10-23T14:35:33.599Z,1.73
2022-10-23T14:37:59.977Z,1.48
2022-10-23T14:40:26.389Z,1.45
2022-10-23T14:42:52.672Z,1.75
2022-10-23T14:45:19.021Z,1.60
2022-10-23T14:47:46.734Z,1.58
2022-10-23T14:50:13.794Z,2.13
2022-10-23T14:52:40.166Z,1.73
2022-10-23T14:55:06.672Z,1.80
2022-10-23T14:57:33.238Z,2.17
2022-10-23T14:59:59.526Z,1.40
2022-10-23T15:02:25.834Z,1.50
2022-10-23T15:04:52.162Z,1.60
2022-10-23T15:07:18.444Z,1.95
2022-10-23T15:09:44.826Z,1.75
2022-10-23T15:12:11.197Z,1.73
2022-10-23T15:14:37.481Z,2.28
2022-10-23T15:17:04.343Z,2.35
2022-10-23T15:19:30.798Z,2.30
2022-10-23T15:21:57.176Z,1.75
2022-10-23T15:24:23.822Z,2.05
2022-10-23T15:26:51.639Z,1.70
2022-10-23T15:29:18.265Z,1.88
2022-10-23T15:31:49.276Z,1.70
2022-10-23T15:34:18.137Z,2.10
2022-10-23T15:36:44.994Z,1.52
2022-10-23T15:39:11.983Z,2.28
2022-10-23T15:41:39.178Z,1.80
2022-10-23T15:44:06.136Z,2.10
2022-10-23T15:46:32.634Z,1.38
2022-10-23T15:48:59.098Z,2.17
2022-10-23T15:51:25.769Z,1.60
2022-10-23T15:53:52.209Z,1.95
2022-10-23T15:56:18.548Z,1.98
2022-10-23T15:58:45.054Z,1.80
2022-10-23T16:01:11.527Z,2.08
2022-10-23T16:03:38.245Z,1.85
2022-10-23T16:06:08.954Z,2.17
2022-10-23T16:08:35.347Z,2.28
2022-10-23T16:11:01.781Z,2.20
2022-10-23T16:13:28.159Z,2.40
2022-10-23T16:15:54.612Z,2.47
2022-10-23T16:18:21.686Z,2.40
2022-10-23T16:20:50.856Z,1.73
2022-10-23T16:23:17.449Z,1.50
2022-10-23T16:25:43.902Z,1.95
2022-10-23T16:28:10.216Z,2.00
2022-10-23T16:30:40.479Z,1.40
2022-10-23T16:33:06.801Z,1.63
2022-10-23T16:35:33.164Z,1.90
2022-10-23T16:37:59.528Z,1.88
2022-10-23T16:40:25.853Z,1.83
2022-10-23T16:42:52.231Z,2.05
2022-10-23T16:45:18.619Z,1.48
2022-10-23T16:47:44.919Z,1.65
2022-10-23T16:50:11.256Z,1.77
2022-10-23T16:52:37.850Z,1.90
2022-10-23T16:55:04.337Z,1.63
2022-10-23T16:57:30.779Z,1.70
2022-10-23T16:59:57.203Z,2.00
2022-10-23T17:02:23.707Z,1.77
2022-10-23T17:04:50.222Z,1.85
2022-10-23T17:07:16.740Z,1.90
2022-10-23T17:09:46.658Z,1.92
2022-10-23T17:12:13.603Z,1.35
2022-10-23T17:14:39.992Z,1.90
2022-10-23T17:17:06.875Z,1.80
2022-10-23T17:19:44.693Z,1.77
2022-10-23T17:22:13.179Z,2.13
2022-10-23T17:24:40.155Z,1.92
2022-10-23T17:27:06.531Z,1.95
2022-10-23T17:29:32.924Z,2.28
2022-10-23T17:31:59.296Z,1.98
2022-10-23T17:34:25.820Z,1.90
2022-10-23T17:36:53.271Z,1.85
2022-10-23T17:39:24.245Z,2.13
2022-10-23T17:41:51.161Z,1.85
2022-10-23T17:44:17.543Z,2.13
2022-10-23T17:46:43.893Z,2.13
2022-10-23T17:49:10.758Z,1.80
2022-10-23T17:51:37.324Z,2.35
2022-10-23T17:54:05.335Z,1.98
2022-10-23T17:56:32.305Z,2.00
2022-10-23T17:59:04.294Z,2.90
2022-10-23T18:01:30.941Z,2.22
2022-10-23T18:03:59.617Z,2.10
2022-10-23T18:06:29.590Z,1.75
2022-10-23T18:08:56.174Z,2.25
2022-10-23T18:11:24.247Z,2.65
2022-10-23T18:13:50.732Z,2.17
2022-10-23T18:16:17.203Z,2.50
2022-10-23T18:18:49.323Z,2.78
2022-10-23T18:21:16.333Z,2.15
2022-10-23T18:23:42.884Z,2.15
2022-10-23T18:26:17.207Z,2.22
2022-10-23T18:28:47.284Z,2.30
2022-10-23T18:31:14.413Z,2.45
2022-10-23T18:33:40.808Z,2.28
2022-10-23T18:36:19.055Z,2.40
2022-10-23T18:38:45.639Z,2.20
2022-10-23T18:41:12.117Z,2.70
2022-10-23T18:43:43.655Z,2.03
2022-10-23T18:46:11.531Z,2.55
2022-10-23T18:48:37.846Z,2.55
2022-10-23T18:51:04.179Z,2.40
2022-10-23T18:53:30.502Z,2.55
2022-10-23T18:55:56.879Z,3.33
2022-10-23T18:58:23.195Z,3.20
2022-10-23T19:00:49.598Z,3.55
2022-10-23T19:03:15.988Z,4.45
2022-10-23T19:05:43.235Z,3.75
2022-10-23T19:08:10.006Z,1.90
2022-10-23T19:10:36.761Z,1.02
2022-10-23T19:13:03.597Z,1.25
2022-10-23T19:15:30.218Z,0.77
2022-10-23T19:17:56.592Z,0.80
2022-10-23T19:20:23.067Z,0.68
2022-10-23T19:22:51.167Z,0.52
2022-10-23T19:25:19.299Z,0.50
2022-10-23T19:27:46.377Z,0.38
2022-10-23T19:30:16.240Z,0.70
2022-10-23T19:32:47.069Z,0.60
2022-10-23T19:35:15.233Z,0.45
2022-10-23T19:37:41.705Z,0.70
2022-10-23T19:40:08.503Z,0.80
2022-10-23T19:42:35.663Z,0.70
2022-10-23T19:45:02.051Z,0.80
2022-10-23T19:47:28.479Z,1.10
2022-10-23T19:49:54.824Z,1.17
2022-10-23T19:52:22.659Z,0.80
2022-10-23T19:54:49.122Z,1.15
2022-10-23T19:57:17.084Z,0.88
2022-10-23T19:59:49.880Z,0.50
2022-10-23T20:02:17.049Z,0.60
2022-10-23T20:04:43.670Z,0.70
2022-10-23T20:07:10.053Z,0.90
2022-10-23T20:09:36.523Z,0.70
2022-10-23T20:12:03.947Z,0.70
2022-10-23T20:14:30.441Z,0.90
2022-10-23T20:16:56.813Z,1.30
2022-10-23T20:19:23.177Z,0.98
2022-10-23T20:21:49.572Z,1.05
2022-10-23T20:24:17.386Z,0.80
2022-10-23T20:26:44.995Z,0.80
2022-10-23T20:29:11.328Z,1.00
2022-10-23T20:31:39.453Z,1.25
2022-10-23T20:34:09.541Z,0.80
2022-10-23T20:36:39.355Z,0.90
2022-10-23T20:39:09.225Z,0.93
2022-10-23T20:41:37.404Z,0.68
2022-10-23T20:44:04.859Z,1.20
2022-10-23T20:46:31.625Z,1.05
2022-10-23T20:48:58.154Z,1.02
2022-10-23T20:51:25.052Z,0.90
2022-10-23T20:53:51.837Z,1.00
2022-10-23T20:56:19.591Z,0.85
2022-10-23T20:58:46.401Z,1.17
2022-10-23T21:01:14.343Z,0.65
2022-10-23T21:03:40.737Z,1.00
2022-10-23T21:06:11.263Z,1.48
2022-10-23T21:08:38.133Z,1.00
2022-10-23T21:11:04.639Z,1.17
2022-10-23T21:13:31.286Z,1.50
2022-10-23T21:15:57.849Z,1.55
2022-10-23T21:18:34.211Z,1.10
2022-10-23T21:21:08.280Z,1.35
2022-10-23T21:23:34.875Z,1.50
2022-10-23T21:26:04.690Z,1.27
2022-10-23T21:28:33.657Z,1.58
2022-10-23T21:31:04.317Z,1.00
2022-10-23T21:33:30.684Z,1.40
2022-10-23T21:35:58.384Z,1.15
2022-10-23T21:38:31.237Z,1.02
2022-10-23T21:41:07.434Z,1.00
2022-10-23T21:43:33.772Z,1.35
2022-10-23T21:46:04.583Z,1.05
2022-10-23T21:48:31.221Z,1.05
2022-10-23T21:50:58.520Z,0.93
2022-10-23T21:53:25.550Z,0.93
2022-10-23T21:55:52.085Z,1.23
2022-10-23T21:58:18.661Z,0.85
2022-10-23T22:00:45.258Z,0.88
2022-10-23T22:03:11.582Z,1.02
2022-10-23T22:05:37.906Z,0.80
2022-10-23T22:08:04.470Z,1.05
2022-10-23T22:10:30.805Z,0.88
2022-10-23T22:12:57.127Z,1.20
2022-10-23T22:15:23.472Z,0.93
2022-10-23T22:17:49.756Z,1.25
2022-10-23T22:20:16.125Z,1.52
2022-10-23T22:22:42.445Z,1.27
2022-10-23T22:25:08.833Z,1.00
2022-10-23T22:27:37.009Z,1.13
2022-10-23T22:30:03.894Z,1.20
2022-10-23T22:32:30.310Z,0.93
2022-10-23T22:34:56.599Z,0.90
2022-10-23T22:37:22.940Z,0.80
2022-10-23T22:39:52.463Z,0.90
2022-10-23T22:42:19.342Z,1.00
2022-10-23T22:44:45.702Z,0.65
2022-10-23T22:47:11.984Z,1.00
2022-10-23T22:49:39.324Z,1.20
2022-10-23T22:52:05.695Z,0.90
2022-10-23T22:54:32.006Z,1.10
2022-10-23T22:56:58.589Z,0.93
2022-10-23T22:59:24.912Z,1.15
2022-10-23T23:01:51.263Z,0.85
2022-10-23T23:07:08.172Z,0.80
2022-10-23T23:09:41.689Z,1.02
2022-10-23T23:12:09.354Z,0.73
2022-10-23T23:14:36.152Z,0.70
2022-10-23T23:17:02.566Z,0.93
2022-10-23T23:19:29.066Z,1.33
2022-10-23T23:21:56.313Z,1.52
2022-10-23T23:24:22.686Z,0.73
2022-10-23T23:26:49.003Z,1.20
2022-10-23T23:29:15.471Z,2.70
2022-10-23T23:31:41.858Z,0.98
2022-10-23T23:34:08.350Z,0.90
2022-10-23T23:36:35.271Z,1.00
2022-10-23T23:39:01.824Z,0.93
2022-10-23T23:41:28.550Z,1.00
2022-10-23T23:43:55.737Z,1.75
2022-10-23T23:46:22.156Z,1.45
2022-10-23T23:48:49.628Z,1.23
2022-10-23T23:51:17.350Z,1.20
2022-10-23T23:53:43.865Z,1.67
2022-10-23T23:56:10.400Z,1.60
2022-10-23T23:58:36.827Z,2.03
